Terminal Aerodrome Forecast
Issued by NWS Grand Forks, ND

Home | Current Version | Previous Version | Graphics & Text | Print | Product List | Glossary On
Versions: 1 2 3 4 5 6 7 8 9 10 11 12 13 14 15 16 17 18 19 20
577
FTUS43 KFGF 131138
TAFGFK
TAF
KGFK 131138Z 1312/1412 21005KT P6SM SKC
     FM132100 18009KT P6SM SKC
     FM140600 18012KT P6SM BKN060=

USA.gov is the U.S. government's official web portal to all federal, state and local government web resources and services.